Terminal Aerodrome Forecast
Issued by NWS

Home | Current Version | Previous Version | Text Only | Print | Product List | Glossary On
Versions: 1 2 3 4 5 6 7 8 9 10 11 12 13 14 15 16 17 18 19
000
FTUS45 KRIW 300532
TAFLND
TAF
KLND 300532Z 3006/0106 06006KT 4SM -SN SCT007 OVC012
      TEMPO 3007/3011 BKN007
     FM302000 05007KT 5SM -SNRA OVC010
     FM010400 VRB05KT P6SM VCSH OVC012=

USA.gov is the U.S. government's official web portal to all federal, state and local government web resources and services.